createdAt,value
2018-02-10T00:00:30.096Z,17.57
2018-02-10T00:03:05.832Z,17.93
2018-02-10T00:05:37.775Z,17.03
2018-02-10T00:08:06.068Z,16.77
2018-02-10T00:10:34.187Z,16.60
2018-02-10T00:13:10.098Z,17.37
2018-02-10T00:15:39.230Z,16.70
2018-02-10T00:18:11.389Z,18.40
2018-02-10T00:20:39.529Z,16.43
2018-02-10T00:23:07.656Z,17.10
2018-02-10T00:25:35.755Z,18.33
2018-02-10T00:28:10.126Z,17.00
2018-02-10T00:30:38.260Z,16.47
2018-02-10T00:33:10.055Z,17.97
2018-02-10T00:35:38.226Z,17.77
2018-02-10T00:38:07.350Z,19.90
2018-02-10T00:40:35.447Z,18.23
2018-02-10T00:43:05.536Z,16.77
2018-02-10T00:45:35.655Z,17.03
2018-02-10T00:48:07.070Z,17.23
2018-02-10T00:50:35.186Z,17.07
2018-02-10T00:53:03.290Z,17.80
2018-02-10T00:55:31.435Z,18.83
2018-02-10T00:57:59.625Z,17.73
2018-02-10T01:00:27.823Z,17.97
2018-02-10T01:02:55.942Z,17.23
2018-02-10T01:05:24.083Z,18.87
2018-02-10T01:07:52.183Z,18.83
2018-02-10T01:10:20.298Z,17.37
2018-02-10T01:12:56.108Z,17.87
2018-02-10T01:15:24.208Z,18.97
2018-02-10T01:17:52.344Z,18.87
2018-02-10T01:20:20.452Z,19.13
2018-02-10T01:22:48.612Z,19.63
2018-02-10T01:25:16.736Z,19.40
2018-02-10T01:27:44.841Z,19.57
2018-02-10T01:30:12.964Z,19.93
2018-02-10T01:32:41.093Z,19.40
2018-02-10T01:35:09.213Z,19.43
2018-02-10T01:37:37.333Z,19.43
2018-02-10T01:40:05.477Z,21.47
2018-02-10T01:42:33.574Z,20.40
2018-02-10T01:45:01.686Z,20.47
2018-02-10T01:47:29.817Z,20.40
2018-02-10T01:50:09.756Z,21.13
2018-02-10T01:52:37.880Z,22.20
2018-02-10T01:55:05.984Z,21.37
2018-02-10T01:57:34.121Z,19.70
2018-02-10T02:00:02.254Z,20.77
2018-02-10T02:02:30.353Z,21.87
2018-02-10T02:04:58.477Z,21.03
2018-02-10T02:07:26.582Z,21.50
2018-02-10T02:09:54.683Z,22.33
2018-02-10T02:12:22.879Z,21.30
2018-02-10T02:14:51.000Z,22.13
2018-02-10T02:17:19.180Z,21.63
2018-02-10T02:19:47.309Z,21.43
2018-02-10T02:22:15.416Z,23.23
2018-02-10T02:24:43.548Z,21.57
2018-02-10T02:27:11.654Z,22.20
2018-02-10T02:29:39.776Z,21.73
2018-02-10T02:32:07.879Z,20.60
2018-02-10T02:34:36.005Z,22.37
2018-02-10T02:37:04.116Z,21.40
2018-02-10T02:39:32.251Z,21.77
2018-02-10T02:42:00.374Z,21.40
2018-02-10T02:44:28.547Z,23.43
2018-02-10T02:46:56.662Z,21.77
2018-02-10T02:49:24.790Z,22.07
2018-02-10T02:51:52.923Z,23.53
2018-02-10T02:54:21.042Z,24.13
2018-02-10T02:56:49.155Z,24.30
2018-02-10T02:59:17.255Z,23.30
2018-02-10T03:01:45.393Z,22.57
2018-02-10T03:04:13.490Z,25.90
2018-02-10T03:06:41.641Z,23.83
2018-02-10T03:09:09.749Z,22.77
2018-02-10T03:11:37.865Z,23.73
2018-02-10T03:14:05.985Z,24.00
2018-02-10T03:16:34.089Z,24.43
2018-02-10T03:19:02.202Z,22.60
2018-02-10T03:21:30.327Z,23.40
2018-02-10T03:23:58.460Z,23.43
2018-02-10T03:26:26.577Z,24.10
2018-02-10T03:28:54.694Z,23.77
2018-02-10T03:31:22.816Z,23.73
2018-02-10T03:33:50.954Z,24.77
2018-02-10T03:36:19.075Z,24.27
2018-02-10T03:38:47.179Z,22.40
2018-02-10T03:41:15.296Z,24.17
2018-02-10T03:43:43.410Z,24.07
2018-02-10T03:46:11.520Z,23.57
2018-02-10T03:48:39.662Z,21.93
2018-02-10T03:51:07.786Z,22.50
2018-02-10T03:53:35.893Z,23.00
2018-02-10T03:56:03.995Z,23.30
2018-02-10T03:58:32.107Z,24.93
2018-02-10T04:01:00.230Z,24.90
2018-02-10T04:03:28.353Z,23.83
2018-02-10T04:05:56.452Z,24.93
2018-02-10T04:08:24.584Z,24.27
2018-02-10T04:10:52.698Z,23.80
2018-02-10T04:13:20.844Z,25.27
2018-02-10T04:15:49.002Z,24.50
2018-02-10T04:18:17.103Z,25.77
2018-02-10T04:20:45.241Z,25.00
2018-02-10T04:23:13.350Z,23.13
2018-02-10T04:25:41.484Z,24.20
2018-02-10T04:28:09.604Z,25.77
2018-02-10T04:30:37.730Z,25.27
2018-02-10T04:33:05.849Z,24.43
2018-02-10T04:35:33.954Z,25.00
2018-02-10T04:38:02.122Z,28.27
2018-02-10T04:40:30.231Z,25.17
2018-02-10T04:42:58.342Z,27.00
2018-02-10T04:45:26.465Z,26.03
2018-02-10T04:47:54.592Z,27.67
2018-02-10T04:50:22.718Z,26.67
2018-02-10T04:52:50.853Z,25.93
2018-02-10T04:55:18.975Z,27.43
2018-02-10T04:57:47.097Z,27.57
2018-02-10T05:00:15.241Z,26.37
2018-02-10T05:02:43.334Z,27.10
2018-02-10T05:05:11.468Z,28.23
2018-02-10T05:07:39.574Z,26.67
2018-02-10T05:10:07.683Z,26.97
2018-02-10T05:12:35.808Z,26.97
2018-02-10T05:15:03.937Z,26.87
2018-02-10T05:17:32.066Z,26.80
2018-02-10T05:20:00.182Z,25.97
2018-02-10T05:22:28.299Z,26.80
2018-02-10T05:24:56.434Z,26.17
2018-02-10T05:27:24.556Z,25.03
2018-02-10T05:29:52.689Z,24.60
2018-02-10T05:32:20.810Z,23.63
2018-02-10T05:34:48.922Z,24.30
2018-02-10T05:37:17.068Z,23.83
2018-02-10T05:39:45.172Z,24.87
2018-02-10T05:42:13.343Z,24.17
2018-02-10T05:44:41.533Z,24.17
2018-02-10T05:47:09.645Z,24.80
2018-02-10T05:49:37.832Z,23.30
2018-02-10T05:52:05.935Z,23.93
2018-02-10T05:54:34.090Z,23.60
2018-02-10T05:57:02.171Z,23.77
2018-02-10T05:59:30.322Z,22.47
2018-02-10T06:01:58.432Z,22.07
2018-02-10T06:04:26.557Z,22.53
2018-02-10T06:06:54.696Z,21.57
2018-02-10T06:09:22.810Z,21.67
2018-02-10T06:11:50.936Z,22.40
2018-02-10T06:14:19.052Z,21.00
2018-02-10T06:16:47.180Z,20.57
2018-02-10T06:19:15.288Z,21.40
2018-02-10T06:21:43.992Z,19.73
2018-02-10T06:24:12.114Z,20.10
2018-02-10T06:26:40.231Z,21.13
2018-02-10T06:29:08.344Z,20.80
2018-02-10T06:31:36.583Z,20.10
2018-02-10T06:34:04.667Z,19.23
2018-02-10T06:36:32.787Z,18.43
2018-02-10T06:39:00.939Z,20.07
2018-02-10T06:41:29.083Z,20.40
2018-02-10T06:43:57.198Z,19.30
2018-02-10T06:46:25.614Z,19.00
2018-02-10T06:48:53.753Z,18.97
2018-02-10T06:51:21.858Z,18.93
2018-02-10T06:53:49.981Z,19.70
2018-02-10T06:56:18.097Z,19.97
2018-02-10T06:58:46.198Z,19.17
2018-02-10T07:01:14.332Z,19.47
2018-02-10T07:03:42.461Z,19.30
2018-02-10T07:06:10.566Z,19.67
2018-02-10T07:08:38.703Z,18.87
2018-02-10T07:11:06.799Z,20.10
2018-02-10T07:13:34.924Z,18.97
2018-02-10T07:16:03.047Z,20.07
2018-02-10T07:18:31.168Z,19.03
2018-02-10T07:20:59.279Z,19.60
2018-02-10T07:23:27.394Z,18.97
2018-02-10T07:25:55.526Z,19.90
2018-02-10T07:28:23.647Z,19.30
2018-02-10T07:30:51.762Z,20.00
2018-02-10T07:33:19.990Z,19.93
2018-02-10T07:35:48.089Z,20.53
2018-02-10T07:38:16.210Z,19.73
2018-02-10T07:40:44.324Z,19.17
2018-02-10T07:43:12.439Z,20.27
2018-02-10T07:45:40.568Z,19.03
2018-02-10T07:48:08.675Z,19.20
2018-02-10T07:50:36.798Z,19.33
2018-02-10T07:53:04.924Z,19.57
2018-02-10T07:55:33.043Z,19.00
2018-02-10T07:58:01.182Z,20.43
2018-02-10T08:00:29.295Z,19.53
2018-02-10T08:02:57.403Z,19.50
2018-02-10T08:05:25.510Z,19.67
2018-02-10T08:07:53.628Z,18.33
2018-02-10T08:10:21.771Z,19.37
2018-02-10T08:12:49.870Z,18.63
2018-02-10T08:15:18.005Z,19.30
2018-02-10T08:17:46.140Z,20.17
2018-02-10T08:20:14.224Z,18.70
2018-02-10T08:22:42.392Z,19.13
2018-02-10T08:25:10.508Z,17.90
2018-02-10T08:27:38.658Z,19.27
2018-02-10T08:30:06.762Z,19.57
2018-02-10T08:32:34.917Z,19.30
2018-02-10T08:35:03.025Z,18.90
2018-02-10T08:37:31.162Z,19.23
2018-02-10T08:39:59.281Z,19.83
2018-02-10T08:42:27.391Z,19.07
2018-02-10T08:44:55.521Z,19.00
2018-02-10T08:47:23.627Z,18.23
2018-02-10T08:49:51.759Z,19.67
2018-02-10T08:52:19.884Z,20.67
2018-02-10T08:54:48.011Z,19.63
2018-02-10T08:57:16.139Z,20.37
2018-02-10T08:59:44.238Z,20.47
2018-02-10T09:02:12.382Z,19.67
2018-02-10T09:04:40.501Z,17.90
2018-02-10T09:07:08.618Z,20.20
2018-02-10T09:09:36.742Z,18.70
2018-02-10T09:12:04.857Z,19.40
2018-02-10T09:14:32.991Z,18.90
2018-02-10T09:17:01.185Z,19.53
2018-02-10T09:19:29.338Z,19.47
2018-02-10T09:21:57.895Z,19.20
2018-02-10T09:24:26.040Z,19.73
2018-02-10T09:26:54.182Z,19.17
2018-02-10T09:29:22.302Z,19.27
2018-02-10T09:31:50.424Z,20.20
2018-02-10T09:34:18.557Z,19.03
2018-02-10T09:36:46.677Z,19.77
2018-02-10T09:39:15.707Z,18.33
2018-02-10T09:41:44.146Z,19.07
2018-02-10T09:44:12.331Z,21.00
2018-02-10T09:46:40.441Z,19.77
2018-02-10T09:49:08.561Z,20.43
2018-02-10T09:51:36.678Z,20.30
2018-02-10T09:54:04.798Z,20.27
2018-02-10T09:56:32.922Z,20.50
2018-02-10T09:59:01.067Z,18.03
2018-02-10T10:01:29.193Z,19.87
2018-02-10T10:03:57.307Z,20.10
2018-02-10T10:06:25.428Z,19.70
2018-02-10T10:08:53.554Z,18.83
2018-02-10T10:11:21.680Z,20.33
2018-02-10T10:13:49.930Z,19.07
2018-02-10T10:16:18.047Z,20.37
2018-02-10T10:18:46.198Z,20.30
2018-02-10T10:21:14.309Z,20.77
2018-02-10T10:23:42.452Z,19.47
2018-02-10T10:26:10.579Z,20.67
2018-02-10T10:28:38.706Z,20.50
2018-02-10T10:31:06.831Z,20.83
2018-02-10T10:33:34.949Z,21.53
2018-02-10T10:36:03.082Z,20.23
2018-02-10T10:38:31.194Z,20.20
2018-02-10T10:40:59.303Z,21.03
2018-02-10T10:43:27.443Z,21.10
2018-02-10T10:45:55.572Z,20.47
2018-02-10T10:48:23.701Z,21.43
2018-02-10T10:50:51.803Z,21.53
2018-02-10T10:53:19.925Z,22.30
2018-02-10T10:55:48.093Z,21.47
2018-02-10T10:58:16.217Z,21.07
2018-02-10T11:00:44.354Z,21.97
2018-02-10T11:03:12.450Z,21.67
2018-02-10T11:05:40.586Z,23.57
2018-02-10T11:08:12.068Z,22.00
2018-02-10T11:10:40.221Z,20.73
2018-02-10T11:13:08.329Z,22.47
2018-02-10T11:15:36.462Z,21.47
2018-02-10T11:18:04.580Z,25.50
2018-02-10T11:20:32.711Z,23.70
2018-02-10T11:23:00.796Z,21.93
2018-02-10T11:25:28.941Z,23.60
2018-02-10T11:27:57.062Z,21.83
2018-02-10T11:30:25.193Z,22.13
2018-02-10T11:32:53.309Z,24.07
2018-02-10T11:35:21.428Z,22.90
2018-02-10T11:37:49.563Z,22.73
2018-02-10T11:40:21.337Z,23.70
2018-02-10T11:42:49.447Z,24.17
2018-02-10T11:45:17.567Z,22.60
2018-02-10T11:47:45.694Z,23.07
2018-02-10T11:50:13.819Z,23.67
2018-02-10T11:52:41.946Z,23.20
2018-02-10T11:55:10.058Z,22.37
2018-02-10T11:57:38.205Z,22.57
2018-02-10T12:00:06.925Z,22.37
2018-02-10T12:02:35.217Z,22.57
2018-02-10T12:05:03.353Z,22.67
2018-02-10T12:07:31.511Z,22.73
2018-02-10T12:09:59.618Z,21.53
2018-02-10T12:12:27.826Z,21.53
2018-02-10T12:14:55.952Z,20.87
2018-02-10T12:17:24.070Z,21.10
2018-02-10T12:19:55.271Z,21.17
2018-02-10T12:22:23.376Z,20.97
2018-02-10T12:24:51.542Z,20.30
2018-02-10T12:27:19.673Z,20.53
2018-02-10T12:29:47.811Z,17.87
2018-02-10T12:32:15.919Z,19.20
2018-02-10T12:34:44.052Z,18.03
2018-02-10T12:37:12.192Z,18.13
2018-02-10T12:39:40.320Z,19.47
2018-02-10T12:42:08.474Z,19.67
2018-02-10T12:44:36.584Z,19.23
2018-02-10T12:47:04.728Z,18.37
2018-02-10T12:49:32.848Z,17.33
2018-02-10T12:52:01.225Z,17.20
2018-02-10T12:54:29.302Z,17.60
2018-02-10T12:56:57.449Z,17.43
2018-02-10T12:59:25.566Z,16.23
2018-02-10T13:01:53.762Z,17.47
2018-02-10T13:04:21.883Z,17.00
2018-02-10T13:06:49.987Z,16.40
2018-02-10T13:09:18.128Z,16.20
2018-02-10T13:11:46.238Z,15.53
2018-02-10T13:14:14.384Z,15.50
2018-02-10T13:16:42.486Z,15.47
2018-02-10T13:19:10.615Z,16.53
2018-02-10T13:21:38.725Z,17.03
2018-02-10T13:24:06.892Z,16.57
2018-02-10T13:26:35.007Z,16.40
2018-02-10T13:29:03.133Z,16.13
2018-02-10T13:31:31.268Z,17.20
2018-02-10T13:33:59.374Z,17.50
2018-02-10T13:36:27.496Z,16.43
2018-02-10T13:38:55.613Z,15.87
2018-02-10T13:41:23.733Z,17.60
2018-02-10T13:43:51.870Z,18.00
2018-02-10T13:46:20.062Z,19.27
2018-02-10T13:48:48.303Z,17.57
2018-02-10T13:51:16.394Z,18.40
2018-02-10T13:53:44.540Z,18.80
2018-02-10T13:56:12.685Z,20.07
2018-02-10T13:58:40.785Z,21.23
2018-02-10T14:01:08.904Z,18.50
2018-02-10T14:03:37.045Z,18.70
2018-02-10T14:06:05.192Z,19.13
2018-02-10T14:08:33.307Z,19.37
2018-02-10T14:11:01.426Z,19.33
2018-02-10T14:13:29.541Z,18.73
2018-02-10T14:15:57.682Z,18.60
2018-02-10T14:18:25.853Z,17.50
2018-02-10T14:20:53.984Z,18.20
2018-02-10T14:23:22.938Z,18.13
2018-02-10T14:25:52.606Z,16.50
2018-02-10T14:28:21.987Z,17.87
2018-02-10T14:30:50.870Z,16.63
2018-02-10T14:33:19.424Z,16.13
2018-02-10T14:35:47.589Z,18.67
2018-02-10T14:38:15.709Z,16.47
2018-02-10T14:40:43.837Z,17.03
2018-02-10T14:43:11.969Z,17.20
2018-02-10T14:45:40.092Z,18.43
2018-02-10T14:48:08.244Z,17.97
2018-02-10T14:50:36.460Z,16.93
2018-02-10T14:53:04.574Z,18.53
2018-02-10T14:55:32.701Z,17.40
2018-02-10T14:58:00.822Z,18.23
2018-02-10T15:00:28.951Z,18.50
2018-02-10T15:02:57.076Z,18.80
2018-02-10T15:05:25.182Z,19.23
2018-02-10T15:07:53.313Z,20.20
2018-02-10T15:10:21.443Z,20.70
2018-02-10T15:12:49.551Z,21.60
2018-02-10T15:15:17.664Z,19.67
2018-02-10T15:17:45.779Z,19.70
2018-02-10T15:20:13.896Z,18.10
2018-02-10T15:22:42.050Z,19.80
2018-02-10T15:25:10.181Z,18.57
2018-02-10T15:27:38.282Z,17.37
2018-02-10T15:30:17.940Z,17.30
2018-02-10T15:32:57.765Z,18.40
2018-02-10T15:35:25.881Z,18.50
2018-02-10T15:37:54.004Z,18.20
2018-02-10T15:40:22.130Z,20.60
2018-02-10T15:42:50.269Z,18.90
2018-02-10T15:45:18.402Z,20.40
2018-02-10T15:47:49.760Z,20.13
2018-02-10T15:50:17.890Z,21.03
2018-02-10T15:52:46.031Z,20.53
2018-02-10T15:55:14.137Z,19.63
2018-02-10T15:57:42.257Z,19.70
2018-02-10T16:00:10.389Z,20.40
2018-02-10T16:02:38.574Z,19.73
2018-02-10T16:05:06.918Z,18.27
2018-02-10T16:07:35.054Z,20.73
2018-02-10T16:10:03.173Z,20.00
2018-02-10T16:12:31.305Z,19.93
2018-02-10T16:14:59.425Z,19.00
2018-02-10T16:17:27.532Z,20.40
2018-02-10T16:19:55.647Z,20.60
2018-02-10T16:22:24.593Z,20.50
2018-02-10T16:24:52.721Z,21.30
2018-02-10T16:27:20.854Z,21.30
2018-02-10T16:29:48.959Z,21.30
2018-02-10T16:32:17.180Z,20.90
2018-02-10T16:34:45.341Z,21.27
2018-02-10T16:37:13.469Z,20.70
2018-02-10T16:39:41.589Z,21.23
2018-02-10T16:42:09.699Z,20.57
2018-02-10T16:44:37.875Z,18.03
2018-02-10T16:47:05.992Z,20.53
2018-02-10T16:49:34.118Z,18.73
2018-02-10T16:52:02.235Z,19.80
2018-02-10T16:54:30.349Z,19.80
2018-02-10T16:56:58.466Z,20.10
2018-02-10T16:59:26.593Z,19.47
2018-02-10T17:01:54.714Z,19.77
2018-02-10T17:04:22.840Z,19.27
2018-02-10T17:06:50.946Z,19.57
2018-02-10T17:09:19.080Z,19.57
2018-02-10T17:11:47.238Z,19.83
2018-02-10T17:14:15.416Z,17.60
2018-02-10T17:16:43.491Z,16.43
2018-02-10T17:19:11.624Z,15.80
2018-02-10T17:21:39.761Z,16.57
2018-02-10T17:24:07.875Z,14.60
2018-02-10T17:26:36.062Z,15.07
2018-02-10T17:29:04.163Z,14.10
2018-02-10T17:31:32.292Z,13.53
2018-02-10T17:34:00.419Z,13.37
2018-02-10T17:36:28.544Z,13.60
2018-02-10T17:38:56.656Z,13.13
2018-02-10T17:41:24.787Z,12.00
2018-02-10T17:43:52.905Z,11.93
2018-02-10T17:46:21.025Z,12.13
2018-02-10T17:48:49.183Z,12.67
2018-02-10T17:51:17.298Z,11.27
2018-02-10T17:53:45.432Z,12.93
2018-02-10T17:56:13.538Z,13.97
2018-02-10T17:58:41.692Z,12.73
2018-02-10T18:01:10.016Z,11.50
2018-02-10T18:03:38.182Z,11.33
2018-02-10T18:06:06.300Z,11.30
2018-02-10T18:08:34.436Z,11.60
2018-02-10T18:11:02.559Z,10.53
2018-02-10T18:13:30.667Z,10.60
2018-02-10T18:15:58.798Z,10.03
2018-02-10T18:18:26.906Z,10.00
2018-02-10T18:20:55.037Z,10.83
2018-02-10T18:23:23.141Z,10.73
2018-02-10T18:25:51.282Z,10.97
2018-02-10T18:28:19.397Z,11.13
2018-02-10T18:30:47.516Z,12.37
2018-02-10T18:33:15.682Z,12.50
2018-02-10T18:35:43.831Z,12.93
2018-02-10T18:38:11.963Z,13.77
2018-02-10T18:40:40.068Z,14.13
2018-02-10T18:43:08.187Z,13.67
2018-02-10T18:45:36.320Z,13.77
2018-02-10T18:48:04.464Z,13.50
2018-02-10T18:50:32.555Z,13.00
2018-02-10T18:53:00.667Z,12.93
2018-02-10T18:55:28.790Z,12.43
2018-02-10T18:57:56.908Z,11.83
2018-02-10T19:00:25.658Z,12.10
2018-02-10T19:02:53.754Z,10.97
2018-02-10T19:05:21.866Z,10.90
2018-02-10T19:07:49.976Z,10.93
2018-02-10T19:10:18.116Z,10.50
2018-02-10T19:12:46.200Z,10.73
2018-02-10T19:15:14.405Z,10.33
2018-02-10T19:17:42.517Z,9.47
2018-02-10T19:20:11.533Z,10.10
2018-02-10T19:22:40.056Z,10.40
2018-02-10T19:25:08.174Z,10.13
2018-02-10T19:27:36.285Z,9.77
2018-02-10T19:30:04.397Z,8.90
2018-02-10T19:32:32.524Z,9.70
2018-02-10T19:35:00.647Z,9.00
2018-02-10T19:37:28.772Z,10.00
2018-02-10T19:39:56.888Z,9.67
2018-02-10T19:42:25.006Z,9.80
2018-02-10T19:44:53.126Z,10.50
2018-02-10T19:47:21.242Z,9.77
2018-02-10T19:49:49.351Z,10.33
2018-02-10T19:52:17.474Z,10.33
2018-02-10T19:54:45.591Z,9.50
2018-02-10T19:57:13.699Z,9.60
2018-02-10T19:59:41.816Z,9.10
2018-02-10T20:02:09.939Z,8.50
2018-02-10T20:04:38.468Z,8.97
2018-02-10T20:07:06.598Z,8.67
2018-02-10T20:09:34.694Z,8.10
2018-02-10T20:12:02.811Z,7.80
2018-02-10T20:14:30.928Z,7.87
2018-02-10T20:16:59.056Z,8.00
2018-02-10T20:19:27.221Z,7.33
2018-02-10T20:21:55.335Z,7.33
2018-02-10T20:24:23.436Z,7.67
2018-02-10T20:26:51.544Z,7.40
2018-02-10T20:29:19.731Z,7.90
2018-02-10T20:31:47.846Z,7.27
2018-02-10T20:34:15.976Z,7.37
2018-02-10T20:36:44.086Z,7.20
2018-02-10T20:39:12.218Z,7.60
2018-02-10T20:41:40.396Z,7.27
2018-02-10T20:44:08.503Z,7.20
2018-02-10T20:46:36.615Z,6.97
2018-02-10T20:49:04.729Z,7.23
2018-02-10T20:51:32.846Z,7.10
2018-02-10T20:54:00.960Z,6.80
2018-02-10T20:56:29.069Z,7.57
2018-02-10T20:58:57.171Z,7.63
2018-02-10T21:01:25.305Z,7.87
2018-02-10T21:03:53.433Z,8.77
2018-02-10T21:06:21.527Z,8.70
2018-02-10T21:08:49.649Z,9.00
2018-02-10T21:11:17.777Z,8.17
2018-02-10T21:13:48.812Z,8.03
2018-02-10T21:16:17.062Z,8.50
2018-02-10T21:18:45.185Z,8.40
2018-02-10T21:21:13.353Z,7.53
2018-02-10T21:23:41.486Z,7.83
2018-02-10T21:26:09.594Z,7.60
2018-02-10T21:28:37.701Z,7.00
2018-02-10T21:31:05.813Z,7.23
2018-02-10T21:33:33.914Z,7.17
2018-02-10T21:36:02.042Z,7.03
2018-02-10T21:38:30.152Z,7.20
2018-02-10T21:40:58.274Z,7.43
2018-02-10T21:43:26.395Z,8.03
2018-02-10T21:45:54.509Z,7.67
2018-02-10T21:48:22.615Z,8.73
2018-02-10T21:50:50.770Z,8.00
2018-02-10T21:53:18.877Z,7.77
2018-02-10T21:55:47.032Z,8.13
2018-02-10T21:58:15.139Z,8.33
2018-02-10T22:00:43.252Z,7.90
2018-02-10T22:03:11.405Z,8.13
2018-02-10T22:05:39.485Z,6.83
2018-02-10T22:08:07.590Z,6.93
2018-02-10T22:10:35.957Z,7.20
2018-02-10T22:13:04.055Z,6.90
2018-02-10T22:15:32.167Z,6.90
2018-02-10T22:18:00.292Z,6.77
2018-02-10T22:20:28.420Z,6.87
2018-02-10T22:22:56.571Z,6.37
2018-02-10T22:25:24.650Z,6.90
2018-02-10T22:27:52.764Z,6.67
2018-02-10T22:30:20.880Z,6.00
2018-02-10T22:32:49.307Z,6.00
2018-02-10T22:35:17.429Z,6.47
2018-02-10T22:37:45.539Z,5.73
2018-02-10T22:40:13.681Z,5.83
2018-02-10T22:42:41.819Z,5.17
2018-02-10T22:45:13.565Z,5.47
2018-02-10T22:47:41.700Z,5.57
2018-02-10T22:50:09.789Z,4.90
2018-02-10T22:52:37.921Z,5.00
2018-02-10T22:55:06.052Z,5.40
2018-02-10T22:57:34.141Z,5.03
2018-02-10T23:00:02.236Z,4.90
2018-02-10T23:02:30.336Z,4.97
2018-02-10T23:04:58.442Z,5.13
2018-02-10T23:07:26.544Z,5.47
2018-02-10T23:09:54.678Z,4.90
2018-02-10T23:12:22.771Z,5.40
2018-02-10T23:14:50.891Z,5.33
2018-02-10T23:17:18.999Z,5.00
2018-02-10T23:19:47.117Z,4.70
2018-02-10T23:22:15.314Z,4.80
2018-02-10T23:24:43.451Z,4.60
2018-02-10T23:27:11.574Z,4.57
2018-02-10T23:29:39.739Z,4.10
2018-02-10T23:32:07.903Z,4.50
2018-02-10T23:34:36.045Z,4.37
2018-02-10T23:37:04.134Z,4.43
2018-02-10T23:39:32.242Z,4.47
2018-02-10T23:42:00.373Z,4.97
2018-02-10T23:44:28.519Z,4.83
2018-02-10T23:46:56.607Z,5.10
2018-02-10T23:49:24.722Z,4.40
2018-02-10T23:51:52.840Z,5.20
2018-02-10T23:54:20.968Z,4.90
2018-02-10T23:56:49.169Z,4.60
2018-02-10T23:59:17.255Z,5.30
